Alton, Illinois
Current Conditions -  °F | °C
As of 1:50 PM on Friday 24 Oct 2014 (Local Time) from KALN Reporting Station
Scattered Clouds Scattered Clouds  
Wind Chill: 68°   Ceiling: Unl
Heat Index: 68°   Visibility: 10mi
Dew Point: 54°   Wind: 6mph
Humidity: 60%   Direction: 260°W
Pressure: 30.06"   Gusts: NA
Location:  38.89°N, 90.18°W
Report Text: KALN 241850Z 26005KT 10SM SCT150 20/12 A3006
Loading
Personal Weather Stations






























Interactive Weather Map New forecast layout! Learn more

10-Day Weather Forecast

Advertisements
Track Severe Weather on mobile